createdAt,value
2018-08-09T00:00:26.014Z,68.57
2018-08-09T00:02:55.724Z,67.47
2018-08-09T00:05:25.523Z,68.67
2018-08-09T00:07:55.589Z,68.41
2018-08-09T00:10:26.674Z,68.88
2018-08-09T00:12:56.618Z,69.85
2018-08-09T00:15:26.894Z,69.89
2018-08-09T00:17:56.856Z,69.58
2018-08-09T00:20:26.662Z,69.18
2018-08-09T00:22:56.456Z,69.97
2018-08-09T00:25:26.408Z,69.49
2018-08-09T00:27:56.282Z,69.81
2018-08-09T00:30:26.137Z,69.68
2018-08-09T00:32:56.252Z,69.99
2018-08-09T00:35:26.540Z,69.21
2018-08-09T00:37:56.900Z,70.26
2018-08-09T00:40:26.781Z,70.24
2018-08-09T00:42:56.756Z,71.38
2018-08-09T00:45:26.567Z,72.50
2018-08-09T00:47:56.495Z,72.53
2018-08-09T00:50:26.637Z,72.28
2018-08-09T00:52:56.398Z,73.07
2018-08-09T00:55:26.148Z,72.59
2018-08-09T00:57:56.298Z,72.96
2018-08-09T01:00:26.130Z,73.76
2018-08-09T01:02:56.000Z,73.38
2018-08-09T01:05:25.876Z,73.40
2018-08-09T01:07:56.188Z,72.98
2018-08-09T01:10:26.468Z,73.35
2018-08-09T01:12:56.498Z,74.09
2018-08-09T01:15:26.481Z,73.47
2018-08-09T01:17:56.363Z,74.28
2018-08-09T01:20:26.112Z,72.73
2018-08-09T01:22:56.136Z,71.43
2018-08-09T01:25:25.905Z,71.66
2018-08-09T01:27:55.907Z,69.92
2018-08-09T01:30:25.815Z,70.67
2018-08-09T01:32:55.535Z,69.52
2018-08-09T01:35:26.345Z,69.51
2018-08-09T01:37:56.034Z,69.59
2018-08-09T01:40:25.871Z,69.10
2018-08-09T01:43:12.689Z,69.35
2018-08-09T01:45:42.992Z,70.53
2018-08-09T01:48:12.879Z,70.70
2018-08-09T01:50:44.230Z,70.71
2018-08-09T01:53:14.299Z,69.70
2018-08-09T01:55:44.502Z,70.75
2018-08-09T01:58:18.473Z,70.76
2018-08-09T02:00:48.054Z,71.23
2018-08-09T02:03:43.405Z,71.91
2018-08-09T02:06:14.232Z,73.98
2018-08-09T02:08:45.204Z,73.70
2018-08-09T02:11:14.930Z,74.21
2018-08-09T02:13:45.519Z,73.65
2018-08-09T02:16:15.425Z,73.28
2018-08-09T02:18:46.456Z,72.25
2018-08-09T02:21:16.775Z,71.68
2018-08-09T02:23:47.497Z,73.08
2018-08-09T02:26:17.145Z,72.81
2018-08-09T02:28:47.139Z,72.88
2018-08-09T02:31:17.268Z,73.26
2018-08-09T02:33:47.753Z,72.67
2018-08-09T02:36:23.866Z,71.83
2018-08-09T02:38:53.912Z,71.25
2018-08-09T02:41:24.244Z,73.42
2018-08-09T02:43:54.215Z,72.92
2018-08-09T02:46:24.007Z,73.24
2018-08-09T02:48:53.753Z,72.85
2018-08-09T02:51:24.064Z,73.47
2018-08-09T02:53:53.810Z,72.13
2018-08-09T02:56:24.356Z,73.56
2018-08-09T02:58:54.479Z,73.12
2018-08-09T03:01:24.691Z,72.20
2018-08-09T03:03:54.568Z,72.52
2018-08-09T03:06:24.866Z,72.37
2018-08-09T03:08:54.744Z,74.27
2018-08-09T03:11:24.800Z,74.76
2018-08-09T03:13:54.670Z,75.54
2018-08-09T03:16:24.837Z,76.80
2018-08-09T03:18:54.958Z,77.19
2018-08-09T03:21:24.852Z,76.63
2018-08-09T03:23:55.234Z,77.12
2018-08-09T03:26:27.963Z,75.61
2018-08-09T03:28:58.535Z,76.04
2018-08-09T03:31:28.352Z,75.88
2018-08-09T03:33:58.230Z,76.59
2018-08-09T03:36:29.096Z,76.68
2018-08-09T03:38:58.862Z,77.53
2018-08-09T03:41:28.796Z,76.83
2018-08-09T03:43:58.654Z,77.69
2018-08-09T03:46:28.285Z,77.67
2018-08-09T03:48:58.591Z,77.84
2018-08-09T03:51:28.372Z,77.72
2018-08-09T03:53:58.139Z,78.61
2018-08-09T03:56:28.265Z,77.88
2018-08-09T03:58:58.268Z,77.60
2018-08-09T04:01:28.314Z,78.06
2018-08-09T04:03:58.217Z,78.05
2018-08-09T04:06:28.359Z,77.99
2018-08-09T04:08:58.296Z,77.49
2018-08-09T04:11:28.386Z,77.39
2018-08-09T04:13:58.103Z,77.04
2018-08-09T04:16:28.065Z,77.35
2018-08-09T04:18:58.279Z,76.82
2018-08-09T04:21:28.283Z,76.30
2018-08-09T04:23:58.265Z,75.96
2018-08-09T04:26:28.032Z,76.50
2018-08-09T04:28:57.997Z,75.56
2018-08-09T04:31:28.839Z,75.86
2018-08-09T04:33:58.775Z,75.13
2018-08-09T04:36:28.543Z,74.27
2018-08-09T04:38:58.784Z,74.53
2018-08-09T04:41:28.595Z,73.64
2018-08-09T04:43:58.860Z,72.70
2018-08-09T04:46:29.545Z,69.75
2018-08-09T04:49:00.220Z,68.24
2018-08-09T04:51:30.130Z,64.81
2018-08-09T04:54:00.606Z,62.40
2018-08-09T04:56:30.812Z,63.78
2018-08-09T04:59:00.977Z,62.04
2018-08-09T05:01:35.790Z,63.02
2018-08-09T05:04:05.684Z,61.14
2018-08-09T05:06:36.288Z,58.87
2018-08-09T05:09:10.041Z,58.20
2018-08-09T05:11:40.305Z,55.80
2018-08-09T05:14:10.072Z,54.13
2018-08-09T05:16:40.372Z,55.84
2018-08-09T05:19:10.380Z,54.84
2018-08-09T05:21:40.691Z,55.48
2018-08-09T05:24:10.675Z,49.92
2018-08-09T05:26:40.491Z,47.96
2018-08-09T05:29:17.977Z,49.71
2018-08-09T05:31:48.517Z,59.88
2018-08-09T05:34:18.478Z,61.73
2018-08-09T05:36:48.228Z,64.36
2018-08-09T05:39:18.844Z,67.47
2018-08-09T05:41:48.540Z,65.20
2018-08-09T05:44:18.200Z,63.42
2018-08-09T05:46:48.607Z,56.54
2018-08-09T05:49:18.521Z,49.61
2018-08-09T05:51:48.264Z,48.69
2018-08-09T05:54:18.058Z,52.14
2018-08-09T05:56:48.305Z,44.28
2018-08-09T05:59:18.429Z,47.85
2018-08-09T06:01:48.356Z,43.92
2018-08-09T06:04:18.757Z,41.59
2018-08-09T06:06:49.058Z,40.88
2018-08-09T06:09:19.072Z,39.17
2018-08-09T06:11:49.709Z,42.51
2018-08-09T06:14:20.766Z,40.80
2018-08-09T06:16:50.770Z,36.67
2018-08-09T06:19:21.046Z,51.49
2018-08-09T06:21:51.251Z,54.87
2018-08-09T06:24:21.631Z,55.29
2018-08-09T06:26:52.619Z,57.39
2018-08-09T06:29:22.812Z,60.19
2018-08-09T06:31:52.935Z,61.76
2018-08-09T06:34:23.517Z,60.52
2018-08-09T06:36:53.518Z,53.73
2018-08-09T06:39:23.270Z,51.62
2018-08-09T06:41:52.979Z,48.03
2018-08-09T06:44:22.880Z,41.87
2018-08-09T06:46:52.818Z,38.88
2018-08-09T06:49:24.001Z,39.64
2018-08-09T06:51:54.756Z,46.93
2018-08-09T06:54:24.641Z,43.56
2018-08-09T06:56:56.567Z,49.75
2018-08-09T06:59:26.743Z,59.21
2018-08-09T07:01:56.779Z,62.23
2018-08-09T07:04:26.847Z,60.56
2018-08-09T07:06:56.730Z,62.03
2018-08-09T07:09:26.611Z,62.58
2018-08-09T07:11:56.355Z,62.55
2018-08-09T07:14:26.231Z,63.23
2018-08-09T07:16:56.450Z,62.72
2018-08-09T07:19:26.280Z,63.92
2018-08-09T07:21:56.523Z,64.75
2018-08-09T07:24:26.355Z,65.44
2018-08-09T07:26:56.343Z,65.21
2018-08-09T07:29:26.150Z,64.65
2018-08-09T07:31:56.222Z,65.11
2018-08-09T07:34:26.064Z,65.14
2018-08-09T07:36:55.828Z,65.95
2018-08-09T07:39:26.569Z,66.47
2018-08-09T07:41:56.442Z,66.98
2018-08-09T07:44:26.862Z,70.00
2018-08-09T07:46:56.881Z,71.28
2018-08-09T07:49:26.599Z,74.24
2018-08-09T07:51:57.362Z,78.55
2018-08-09T07:54:28.549Z,81.24
2018-08-09T07:56:58.709Z,87.97
2018-08-09T07:59:28.819Z,90.33
2018-08-09T08:01:58.652Z,92.32
2018-08-09T08:04:29.062Z,95.05
2018-08-09T08:06:58.971Z,97.16
2018-08-09T08:09:29.759Z,99.80
2018-08-09T08:12:00.950Z,100.00
2018-08-09T08:14:31.000Z,100.00
2018-08-09T08:17:01.087Z,100.00
2018-08-09T08:19:31.218Z,100.00
2018-08-09T08:22:01.899Z,100.00
2018-08-09T08:24:32.514Z,100.00
2018-08-09T08:27:03.145Z,100.00
2018-08-09T08:29:36.070Z,99.93
2018-08-09T08:32:06.176Z,100.00
2018-08-09T08:34:36.412Z,100.00
2018-08-09T08:37:06.711Z,100.00
2018-08-09T08:39:36.471Z,100.00
2018-08-09T08:42:07.081Z,98.12
2018-08-09T08:44:37.014Z,98.33
2018-08-09T08:47:07.671Z,98.00
2018-08-09T08:49:37.687Z,98.25
2018-08-09T08:52:07.791Z,98.13
2018-08-09T08:54:38.323Z,96.42
2018-08-09T08:57:08.217Z,98.06
2018-08-09T08:59:38.688Z,99.17
2018-08-09T09:02:08.713Z,97.94
2018-08-09T09:04:38.816Z,98.26
2018-08-09T09:07:08.618Z,97.76
2018-08-09T09:09:38.256Z,97.77
2018-08-09T09:12:08.577Z,98.59
2018-08-09T09:14:39.003Z,99.68
2018-08-09T09:17:08.934Z,98.16
2018-08-09T09:19:39.016Z,98.17
2018-08-09T09:22:08.849Z,97.76
2018-08-09T09:24:38.506Z,95.49
2018-08-09T09:27:08.638Z,97.51
2018-08-09T09:29:38.469Z,95.93
2018-08-09T09:32:09.045Z,96.20
2018-08-09T09:34:39.193Z,94.61
2018-08-09T09:37:09.370Z,94.95
2018-08-09T09:39:39.560Z,93.62
2018-08-09T09:42:09.667Z,93.31
2018-08-09T09:44:39.905Z,94.25
2018-08-09T09:47:09.919Z,94.40
2018-08-09T09:49:40.627Z,95.11
2018-08-09T09:52:10.569Z,93.69
2018-08-09T09:54:40.791Z,94.01
2018-08-09T09:57:11.015Z,90.85
2018-08-09T09:59:40.926Z,87.69
2018-08-09T10:02:17.268Z,87.31
2018-08-09T10:04:47.936Z,84.40
2018-08-09T10:07:18.094Z,84.03
2018-08-09T10:09:48.011Z,75.43
2018-08-09T10:12:17.768Z,75.72
2018-08-09T10:14:47.647Z,71.63
2018-08-09T10:17:18.466Z,71.51
2018-08-09T10:19:48.357Z,72.04
2018-08-09T10:22:18.386Z,75.00
2018-08-09T10:24:49.097Z,78.00
2018-08-09T10:27:18.863Z,76.30
2018-08-09T10:29:49.556Z,76.85
2018-08-09T10:32:19.407Z,75.73
2018-08-09T10:34:49.384Z,74.96
2018-08-09T10:37:19.661Z,72.48
2018-08-09T10:39:49.428Z,72.71
2018-08-09T10:42:19.560Z,68.36
2018-08-09T10:44:49.509Z,69.41
2018-08-09T10:47:19.558Z,66.65
2018-08-09T10:49:50.126Z,66.08
2018-08-09T10:52:20.474Z,63.35
2018-08-09T10:54:50.413Z,64.13
2018-08-09T10:57:20.289Z,63.00
2018-08-09T10:59:50.817Z,62.28
2018-08-09T11:02:21.013Z,63.25
2018-08-09T11:04:51.132Z,60.92
2018-08-09T11:07:21.061Z,60.50
2018-08-09T11:09:51.473Z,59.82
2018-08-09T11:12:21.228Z,61.79
2018-08-09T11:14:51.034Z,59.89
2018-08-09T11:17:21.223Z,62.67
2018-08-09T11:19:51.516Z,61.17
2018-08-09T11:22:21.644Z,62.88
2018-08-09T11:24:52.082Z,61.04
2018-08-09T11:27:22.407Z,60.88
2018-08-09T11:29:52.410Z,61.16
2018-08-09T11:32:22.342Z,60.24
2018-08-09T11:34:52.251Z,59.17
2018-08-09T11:37:22.889Z,56.88
2018-08-09T11:39:53.001Z,57.69
2018-08-09T11:42:23.089Z,55.48
2018-08-09T11:44:53.122Z,55.07
2018-08-09T11:47:22.997Z,55.69
2018-08-09T11:49:52.774Z,56.39
2018-08-09T11:52:22.696Z,55.42
2018-08-09T11:54:52.443Z,53.59
2018-08-09T11:57:22.270Z,53.13
2018-08-09T11:59:52.275Z,53.34
2018-08-09T12:02:22.966Z,53.62
2018-08-09T12:04:52.985Z,52.70
2018-08-09T12:07:23.207Z,52.04
2018-08-09T12:09:53.152Z,51.31
2018-08-09T12:12:22.834Z,52.00
2018-08-09T12:14:52.922Z,51.95
2018-08-09T12:17:22.989Z,51.33
2018-08-09T12:19:53.196Z,51.55
2018-08-09T12:22:23.420Z,50.73
2018-08-09T12:24:53.799Z,49.42
2018-08-09T12:27:23.589Z,49.35
2018-08-09T12:29:53.543Z,49.32
2018-08-09T12:32:24.440Z,49.22
2018-08-09T12:34:54.261Z,49.29
2018-08-09T12:37:24.204Z,49.01
2018-08-09T12:39:54.144Z,49.34
2018-08-09T12:42:24.092Z,49.24
2018-08-09T12:44:53.811Z,49.94
2018-08-09T12:47:24.213Z,49.11
2018-08-09T12:49:54.147Z,49.68
2018-08-09T12:52:24.732Z,48.81
2018-08-09T12:54:54.496Z,48.44
2018-08-09T12:57:24.228Z,49.25
2018-08-09T12:59:54.080Z,48.16
2018-08-09T13:02:23.841Z,49.05
2018-08-09T13:04:53.601Z,48.49
2018-08-09T13:07:23.823Z,49.14
2018-08-09T13:09:53.922Z,47.84
2018-08-09T13:12:23.928Z,47.79
2018-08-09T13:14:53.721Z,46.83
2018-08-09T13:17:24.054Z,45.71
2018-08-09T13:19:54.069Z,46.02
2018-08-09T13:22:24.360Z,46.04
2018-08-09T13:24:54.247Z,46.33
2018-08-09T13:27:24.637Z,47.17
2018-08-09T13:29:54.795Z,46.20
2018-08-09T13:32:25.335Z,45.53
2018-08-09T13:34:56.261Z,45.73
2018-08-09T13:37:26.302Z,45.43
2018-08-09T13:39:56.591Z,44.20
2018-08-09T13:42:26.273Z,43.87
2018-08-09T13:44:56.235Z,43.77
2018-08-09T13:47:26.278Z,43.62
2018-08-09T13:49:56.834Z,43.67
2018-08-09T13:52:27.537Z,43.09
2018-08-09T13:54:57.364Z,43.71
2018-08-09T13:57:27.300Z,44.12
2018-08-09T13:59:58.277Z,43.69
2018-08-09T14:02:28.608Z,42.98
2018-08-09T14:04:58.524Z,43.41
2018-08-09T14:07:28.335Z,44.36
2018-08-09T14:09:59.163Z,44.14
2018-08-09T14:12:29.078Z,42.79
2018-08-09T14:14:58.696Z,43.39
2018-08-09T14:17:28.475Z,42.35
2018-08-09T14:19:58.908Z,41.90
2018-08-09T14:22:29.306Z,42.34
2018-08-09T14:24:59.200Z,41.70
2018-08-09T14:27:28.934Z,39.05
2018-08-09T14:29:58.683Z,37.75
2018-08-09T14:32:28.756Z,36.78
2018-08-09T14:34:58.864Z,36.63
2018-08-09T14:37:29.448Z,36.74
2018-08-09T14:39:59.269Z,36.37
2018-08-09T14:42:29.167Z,37.29
2018-08-09T14:44:59.045Z,37.32
2018-08-09T14:47:28.953Z,37.62
2018-08-09T14:49:58.752Z,37.82
2018-08-09T14:52:28.449Z,37.36
2018-08-09T14:54:58.499Z,38.99
2018-08-09T14:57:28.872Z,43.62
2018-08-09T14:59:58.842Z,53.43
2018-08-09T15:02:29.326Z,74.80
2018-08-09T15:04:59.391Z,94.34
2018-08-09T15:07:29.242Z,97.91
2018-08-09T15:09:59.235Z,93.59
2018-08-09T15:12:29.037Z,92.33
2018-08-09T15:14:59.134Z,89.40
2018-08-09T15:17:29.099Z,87.88
2018-08-09T15:19:59.263Z,89.33
2018-08-09T15:22:29.106Z,87.18
2018-08-09T15:24:58.957Z,88.45
2018-08-09T15:27:29.253Z,89.62
2018-08-09T15:29:59.395Z,91.26
2018-08-09T15:32:29.284Z,89.44
2018-08-09T15:34:59.033Z,91.67
2018-08-09T15:37:28.925Z,91.75
2018-08-09T15:39:58.819Z,92.59
2018-08-09T15:42:28.581Z,92.11
2018-08-09T15:44:58.558Z,91.49
2018-08-09T15:47:28.514Z,93.96
2018-08-09T15:49:58.444Z,91.37
2018-08-09T15:52:28.339Z,92.46
2018-08-09T15:54:58.505Z,91.40
2018-08-09T15:57:28.637Z,91.94
2018-08-09T15:59:58.937Z,91.31
2018-08-09T16:02:29.092Z,91.80
2018-08-09T16:04:58.893Z,93.04
2018-08-09T16:07:28.907Z,92.36
2018-08-09T16:09:58.894Z,93.52
2018-08-09T16:12:29.899Z,93.71
2018-08-09T16:14:59.772Z,89.75
2018-08-09T16:17:29.674Z,89.21
2018-08-09T16:20:00.178Z,87.78
2018-08-09T16:22:30.461Z,87.48
2018-08-09T16:25:00.830Z,88.25
2018-08-09T16:27:30.810Z,87.78
2018-08-09T16:30:00.566Z,87.83
2018-08-09T16:32:30.461Z,88.59
2018-08-09T16:35:00.415Z,87.06
2018-08-09T16:37:31.027Z,85.63
2018-08-09T16:40:00.891Z,85.49
2018-08-09T16:42:31.259Z,86.57
2018-08-09T16:45:01.290Z,85.16
2018-08-09T16:47:31.444Z,86.31
2018-08-09T16:50:01.594Z,83.82
2018-08-09T16:52:31.653Z,85.68
2018-08-09T16:55:02.354Z,85.43
2018-08-09T16:57:32.873Z,85.63
2018-08-09T17:00:02.861Z,84.14
2018-08-09T17:02:32.667Z,85.72
2018-08-09T17:05:02.884Z,85.08
2018-08-09T17:07:33.033Z,83.01
2018-08-09T17:10:03.344Z,84.41
2018-08-09T17:12:33.636Z,83.24
2018-08-09T17:15:03.423Z,83.01
2018-08-09T17:17:33.024Z,83.81
2018-08-09T17:20:02.771Z,83.45
2018-08-09T17:22:33.093Z,81.74
2018-08-09T17:25:03.153Z,83.21
2018-08-09T17:27:32.880Z,81.86
2018-08-09T17:30:03.046Z,83.15
2018-08-09T17:32:38.269Z,81.50
2018-08-09T17:35:14.814Z,82.46
2018-08-09T17:37:44.816Z,80.97
2018-08-09T17:40:27.549Z,84.01
2018-08-09T17:42:58.595Z,81.52
2018-08-09T17:45:32.532Z,81.82
2018-08-09T17:48:03.570Z,80.65
2018-08-09T17:50:33.847Z,82.09
2018-08-09T17:53:05.107Z,81.30
2018-08-09T17:55:35.239Z,81.12
2018-08-09T17:58:05.667Z,81.12
2018-08-09T18:00:36.201Z,79.93
2018-08-09T18:03:06.398Z,82.21
2018-08-09T18:05:37.393Z,81.29
2018-08-09T18:08:07.435Z,81.14
2018-08-09T18:10:37.653Z,79.65
2018-08-09T18:13:07.409Z,79.82
2018-08-09T18:15:37.436Z,80.74
2018-08-09T18:18:07.946Z,81.18
2018-08-09T18:20:38.736Z,81.10
2018-08-09T18:23:08.915Z,80.92
2018-08-09T18:25:38.896Z,80.01
2018-08-09T18:28:10.095Z,79.78
2018-08-09T18:30:40.060Z,81.98
2018-08-09T18:33:09.873Z,81.56
2018-08-09T18:35:40.687Z,79.90
2018-08-09T18:38:12.061Z,79.49
2018-08-09T18:40:41.971Z,80.07
2018-08-09T18:43:12.039Z,79.69
2018-08-09T18:45:42.606Z,79.54
2018-08-09T18:48:13.323Z,78.88
2018-08-09T18:50:43.093Z,78.85
2018-08-09T18:53:12.819Z,78.88
2018-08-09T18:55:42.626Z,77.20
2018-08-09T18:58:13.661Z,77.42
2018-08-09T19:00:44.088Z,78.48
2018-08-09T19:03:13.841Z,79.19
2018-08-09T19:05:43.905Z,78.70
2018-08-09T19:08:14.934Z,76.75
2018-08-09T19:10:44.733Z,77.24
2018-08-09T19:13:15.301Z,75.59
2018-08-09T19:15:45.121Z,74.79
2018-08-09T19:18:14.956Z,74.72
2018-08-09T19:20:44.669Z,75.01
2018-08-09T19:23:15.880Z,74.74
2018-08-09T19:25:45.553Z,76.25
2018-08-09T19:28:15.341Z,76.28
2018-08-09T19:30:45.502Z,75.29
2018-08-09T19:33:15.807Z,75.59
2018-08-09T19:35:46.038Z,75.36
2018-08-09T19:38:15.796Z,75.73
2018-08-09T19:40:45.830Z,74.39
2018-08-09T19:43:15.706Z,75.42
2018-08-09T19:45:45.550Z,75.56
2018-08-09T19:48:15.391Z,74.71
2018-08-09T19:50:45.293Z,75.83
2018-08-09T19:53:15.402Z,75.23
2018-08-09T19:55:45.484Z,75.41
2018-08-09T19:58:15.616Z,76.33
2018-08-09T20:00:45.373Z,74.57
2018-08-09T20:03:17.154Z,74.34
2018-08-09T20:05:46.836Z,74.38
2018-08-09T20:08:16.817Z,74.39
2018-08-09T20:10:46.961Z,75.62
2018-08-09T20:13:16.943Z,74.76
2018-08-09T20:15:47.040Z,74.75
2018-08-09T20:18:17.320Z,73.51
2018-08-09T20:20:47.348Z,72.46
2018-08-09T20:23:17.458Z,70.56
2018-08-09T20:25:48.352Z,70.14
2018-08-09T20:28:18.261Z,70.18
2018-08-09T20:30:48.465Z,70.71
2018-08-09T20:33:18.280Z,71.09
2018-08-09T20:35:49.106Z,71.84
2018-08-09T20:38:18.886Z,72.25
2018-08-09T20:40:49.237Z,72.37
2018-08-09T20:43:19.752Z,74.26
2018-08-09T20:45:49.545Z,74.15
2018-08-09T20:48:20.115Z,75.07
2018-08-09T20:50:49.949Z,74.89
2018-08-09T20:53:20.209Z,75.68
2018-08-09T20:55:50.337Z,75.09
2018-08-09T20:58:21.541Z,76.14
2018-08-09T21:00:51.784Z,76.30
2018-08-09T21:03:23.955Z,75.26
2018-08-09T21:05:54.135Z,75.07
2018-08-09T21:08:23.876Z,73.95
2018-08-09T21:10:53.651Z,73.97
2018-08-09T21:13:23.822Z,73.78
2018-08-09T21:15:53.729Z,73.77
2018-08-09T21:18:23.490Z,73.26
2018-08-09T21:20:53.378Z,72.71
2018-08-09T21:23:23.413Z,73.29
2018-08-09T21:25:53.263Z,72.56
2018-08-09T21:28:23.260Z,71.95
2018-08-09T21:30:53.016Z,72.43
2018-08-09T21:33:22.630Z,71.54
2018-08-09T21:35:53.465Z,71.25
2018-08-09T21:38:23.203Z,71.35
2018-08-09T21:40:53.438Z,69.52
2018-08-09T21:43:23.324Z,70.66
2018-08-09T21:45:53.186Z,71.12
2018-08-09T21:48:23.085Z,69.57
2018-08-09T21:50:52.863Z,71.18
2018-08-09T21:53:22.795Z,71.49
2018-08-09T21:55:52.617Z,71.26
2018-08-09T21:58:22.470Z,71.42
2018-08-09T22:00:58.021Z,71.29
2018-08-09T22:03:31.564Z,71.83
2018-08-09T22:06:06.482Z,71.25
2018-08-09T22:08:41.548Z,71.33
2018-08-09T22:11:18.244Z,69.76
2018-08-09T22:13:53.285Z,70.81
2018-08-09T22:16:28.544Z,69.93
2018-08-09T22:19:04.101Z,69.74
2018-08-09T22:21:39.063Z,68.84
2018-08-09T22:24:08.733Z,68.40
2018-08-09T22:26:38.583Z,68.54
2018-08-09T22:29:08.520Z,67.88
2018-08-09T22:31:38.281Z,67.08
2018-08-09T22:34:08.841Z,67.44
2018-08-09T22:36:38.504Z,68.17
2018-08-09T22:39:10.453Z,67.13
2018-08-09T22:41:40.528Z,67.10
2018-08-09T22:44:10.484Z,67.57
2018-08-09T22:46:40.483Z,67.78
2018-08-09T22:49:10.494Z,67.43
2018-08-09T22:51:40.388Z,66.05
2018-08-09T22:54:10.240Z,66.17
2018-08-09T22:56:40.185Z,66.02
2018-08-09T22:59:10.137Z,65.14
2018-08-09T23:01:40.152Z,64.98
2018-08-09T23:04:10.524Z,65.09
2018-08-09T23:06:40.218Z,65.05
2018-08-09T23:09:11.620Z,66.21
2018-08-09T23:11:41.492Z,65.68
2018-08-09T23:14:11.867Z,65.98
2018-08-09T23:16:41.638Z,67.10
2018-08-09T23:19:11.738Z,67.99
2018-08-09T23:21:41.496Z,67.87
2018-08-09T23:24:11.528Z,68.03
2018-08-09T23:26:41.508Z,68.97
2018-08-09T23:29:11.575Z,69.79
2018-08-09T23:31:41.414Z,70.59
2018-08-09T23:34:11.712Z,70.86
2018-08-09T23:36:41.832Z,71.32
2018-08-09T23:39:13.074Z,70.59
2018-08-09T23:41:43.956Z,71.32
2018-08-09T23:44:13.764Z,72.11
2018-08-09T23:46:43.550Z,72.06
2018-08-09T23:49:13.998Z,72.30
2018-08-09T23:51:43.877Z,72.63
2018-08-09T23:54:13.591Z,72.21
2018-08-09T23:56:43.599Z,72.66
2018-08-09T23:59:13.549Z,72.81
